sensor_id;sensor_type;location;lat;lon;timestamp;P1;durP1;ratioP1;P2;durP2;ratioP2
53652;SDS011;39553;52.954;5.932;2023-06-22T00:00:51;41.25;;;28.85;;
53652;SDS011;39553;52.954;5.932;2023-06-22T00:03:18;41.22;;;28.42;;
53652;SDS011;39553;52.954;5.932;2023-06-22T00:05:45;41.55;;;28.65;;
53652;SDS011;39553;52.954;5.932;2023-06-22T00:08:11;40.35;;;28.95;;
53652;SDS011;39553;52.954;5.932;2023-06-22T00:10:36;41.95;;;31.02;;
53652;SDS011;39553;52.954;5.932;2023-06-22T00:13:02;43.00;;;29.80;;
53652;SDS011;39553;52.954;5.932;2023-06-22T00:15:28;39.63;;;29.80;;
53652;SDS011;39553;52.954;5.932;2023-06-22T00:17:54;47.17;;;30.55;;
53652;SDS011;39553;52.954;5.932;2023-06-22T00:20:22;42.88;;;30.38;;
53652;SDS011;39553;52.954;5.932;2023-06-22T00:22:53;44.53;;;30.63;;
53652;SDS011;39553;52.954;5.932;2023-06-22T00:25:19;42.40;;;31.30;;
53652;SDS011;39553;52.954;5.932;2023-06-22T00:27:44;41.00;;;30.90;;
53652;SDS011;39553;52.954;5.932;2023-06-22T00:30:10;42.08;;;29.15;;
53652;SDS011;39553;52.954;5.932;2023-06-22T00:32:36;41.67;;;32.35;;
53652;SDS011;39553;52.954;5.932;2023-06-22T00:35:02;42.50;;;29.63;;
53652;SDS011;39553;52.954;5.932;2023-06-22T00:37:28;47.97;;;33.50;;
53652;SDS011;39553;52.954;5.932;2023-06-22T00:39:54;40.65;;;31.10;;
53652;SDS011;39553;52.954;5.932;2023-06-22T00:42:21;38.97;;;30.95;;
53652;SDS011;39553;52.954;5.932;2023-06-22T00:44:46;48.08;;;32.15;;
53652;SDS011;39553;52.954;5.932;2023-06-22T00:47:15;45.08;;;30.55;;
53652;SDS011;39553;52.954;5.932;2023-06-22T00:49:43;51.55;;;34.20;;
53652;SDS011;39553;52.954;5.932;2023-06-22T00:52:09;47.78;;;33.22;;
53652;SDS011;39553;52.954;5.932;2023-06-22T00:54:42;47.15;;;32.30;;
53652;SDS011;39553;52.954;5.932;2023-06-22T00:57:14;47.63;;;31.10;;
53652;SDS011;39553;52.954;5.932;2023-06-22T00:59:44;43.55;;;30.67;;
53652;SDS011;39553;52.954;5.932;2023-06-22T01:02:11;42.85;;;30.77;;
53652;SDS011;39553;52.954;5.932;2023-06-22T01:04:37;42.92;;;32.58;;
53652;SDS011;39553;52.954;5.932;2023-06-22T01:09:46;43.53;;;31.52;;
53652;SDS011;39553;52.954;5.932;2023-06-22T01:12:29;42.97;;;30.92;;
53652;SDS011;39553;52.954;5.932;2023-06-22T01:15:00;40.28;;;30.60;;
53652;SDS011;39553;52.954;5.932;2023-06-22T01:17:33;43.15;;;29.35;;
53652;SDS011;39553;52.954;5.932;2023-06-22T01:20:00;45.83;;;29.30;;
53652;SDS011;39553;52.954;5.932;2023-06-22T01:22:32;41.03;;;29.65;;
53652;SDS011;39553;52.954;5.932;2023-06-22T01:25:10;42.42;;;30.65;;
53652;SDS011;39553;52.954;5.932;2023-06-22T01:27:52;41.50;;;31.65;;
53652;SDS011;39553;52.954;5.932;2023-06-22T01:30:25;41.35;;;29.77;;
53652;SDS011;39553;52.954;5.932;2023-06-22T01:32:56;43.40;;;30.65;;
53652;SDS011;39553;52.954;5.932;2023-06-22T01:35:23;40.90;;;30.50;;
53652;SDS011;39553;52.954;5.932;2023-06-22T01:37:50;45.25;;;30.42;;
53652;SDS011;39553;52.954;5.932;2023-06-22T01:40:16;43.58;;;32.60;;
53652;SDS011;39553;52.954;5.932;2023-06-22T01:42:43;38.67;;;30.58;;
53652;SDS011;39553;52.954;5.932;2023-06-22T01:45:10;39.60;;;31.63;;
53652;SDS011;39553;52.954;5.932;2023-06-22T01:47:37;42.80;;;29.63;;
53652;SDS011;39553;52.954;5.932;2023-06-22T01:50:04;46.08;;;29.90;;
53652;SDS011;39553;52.954;5.932;2023-06-22T01:52:31;42.97;;;30.52;;
53652;SDS011;39553;52.954;5.932;2023-06-22T01:54:59;40.85;;;31.15;;
53652;SDS011;39553;52.954;5.932;2023-06-22T01:57:26;41.88;;;31.35;;
53652;SDS011;39553;52.954;5.932;2023-06-22T02:02:29;40.47;;;30.17;;
53652;SDS011;39553;52.954;5.932;2023-06-22T02:05:18;40.33;;;30.35;;
53652;SDS011;39553;52.954;5.932;2023-06-22T02:07:46;39.88;;;30.95;;
53652;SDS011;39553;52.954;5.932;2023-06-22T02:10:18;42.55;;;31.58;;
53652;SDS011;39553;52.954;5.932;2023-06-22T02:12:46;37.45;;;29.75;;
53652;SDS011;39553;52.954;5.932;2023-06-22T02:15:14;38.90;;;30.17;;
53652;SDS011;39553;52.954;5.932;2023-06-22T02:17:40;39.88;;;30.05;;
53652;SDS011;39553;52.954;5.932;2023-06-22T02:20:13;38.08;;;29.98;;
53652;SDS011;39553;52.954;5.932;2023-06-22T02:22:39;35.80;;;29.17;;
53652;SDS011;39553;52.954;5.932;2023-06-22T02:25:06;36.00;;;30.02;;
53652;SDS011;39553;52.954;5.932;2023-06-22T02:27:32;36.90;;;30.20;;
53652;SDS011;39553;52.954;5.932;2023-06-22T02:29:57;39.20;;;30.63;;
53652;SDS011;39553;52.954;5.932;2023-06-22T02:32:23;37.47;;;27.95;;
53652;SDS011;39553;52.954;5.932;2023-06-22T02:34:49;35.13;;;28.13;;
53652;SDS011;39553;52.954;5.932;2023-06-22T02:37:15;35.95;;;29.80;;
53652;SDS011;39553;52.954;5.932;2023-06-22T02:39:42;39.53;;;30.45;;
53652;SDS011;39553;52.954;5.932;2023-06-22T02:42:07;37.20;;;31.52;;
53652;SDS011;39553;52.954;5.932;2023-06-22T02:44:35;40.42;;;31.38;;
53652;SDS011;39553;52.954;5.932;2023-06-22T02:47:01;38.95;;;28.40;;
53652;SDS011;39553;52.954;5.932;2023-06-22T02:49:27;37.42;;;30.30;;
53652;SDS011;39553;52.954;5.932;2023-06-22T02:51:53;36.95;;;27.48;;
53652;SDS011;39553;52.954;5.932;2023-06-22T02:54:20;41.13;;;30.35;;
53652;SDS011;39553;52.954;5.932;2023-06-22T02:56:46;37.30;;;29.35;;
53652;SDS011;39553;52.954;5.932;2023-06-22T02:59:13;36.38;;;27.90;;
53652;SDS011;39553;52.954;5.932;2023-06-22T03:01:38;39.22;;;31.30;;
53652;SDS011;39553;52.954;5.932;2023-06-22T03:04:07;37.03;;;30.17;;
53652;SDS011;39553;52.954;5.932;2023-06-22T03:06:34;38.70;;;29.50;;
53652;SDS011;39553;52.954;5.932;2023-06-22T03:09:02;39.60;;;31.25;;
53652;SDS011;39553;52.954;5.932;2023-06-22T03:11:35;36.22;;;29.25;;
53652;SDS011;39553;52.954;5.932;2023-06-22T03:14:01;39.03;;;29.70;;
53652;SDS011;39553;52.954;5.932;2023-06-22T03:16:27;37.25;;;28.23;;
53652;SDS011;39553;52.954;5.932;2023-06-22T03:18:54;36.45;;;28.40;;
53652;SDS011;39553;52.954;5.932;2023-06-22T03:21:21;34.80;;;28.73;;
53652;SDS011;39553;52.954;5.932;2023-06-22T03:23:47;36.53;;;27.52;;
53652;SDS011;39553;52.954;5.932;2023-06-22T03:26:16;32.25;;;26.88;;
53652;SDS011;39553;52.954;5.932;2023-06-22T03:28:42;32.92;;;26.98;;
53652;SDS011;39553;52.954;5.932;2023-06-22T03:31:08;35.97;;;27.55;;
53652;SDS011;39553;52.954;5.932;2023-06-22T03:33:34;35.78;;;28.45;;
53652;SDS011;39553;52.954;5.932;2023-06-22T03:36:00;29.85;;;26.58;;
53652;SDS011;39553;52.954;5.932;2023-06-22T03:38:25;34.63;;;25.45;;
53652;SDS011;39553;52.954;5.932;2023-06-22T03:40:51;36.25;;;25.83;;
53652;SDS011;39553;52.954;5.932;2023-06-22T03:43:17;32.28;;;24.48;;
53652;SDS011;39553;52.954;5.932;2023-06-22T03:45:43;28.55;;;24.98;;
53652;SDS011;39553;52.954;5.932;2023-06-22T03:48:10;30.05;;;25.73;;
53652;SDS011;39553;52.954;5.932;2023-06-22T03:50:36;28.50;;;25.50;;
53652;SDS011;39553;52.954;5.932;2023-06-22T03:53:02;31.23;;;25.63;;
53652;SDS011;39553;52.954;5.932;2023-06-22T03:55:28;29.98;;;25.30;;
53652;SDS011;39553;52.954;5.932;2023-06-22T03:57:53;30.65;;;26.15;;
53652;SDS011;39553;52.954;5.932;2023-06-22T04:00:22;29.55;;;25.25;;
53652;SDS011;39553;52.954;5.932;2023-06-22T04:02:48;28.23;;;24.70;;
53652;SDS011;39553;52.954;5.932;2023-06-22T04:05:14;29.73;;;25.10;;
53652;SDS011;39553;52.954;5.932;2023-06-22T04:07:42;37.22;;;27.42;;
53652;SDS011;39553;52.954;5.932;2023-06-22T04:10:08;31.77;;;25.10;;
53652;SDS011;39553;52.954;5.932;2023-06-22T04:12:34;28.80;;;25.35;;
53652;SDS011;39553;52.954;5.932;2023-06-22T04:15:00;34.58;;;26.33;;
53652;SDS011;39553;52.954;5.932;2023-06-22T04:17:25;33.05;;;26.65;;
53652;SDS011;39553;52.954;5.932;2023-06-22T04:19:51;33.30;;;26.08;;
53652;SDS011;39553;52.954;5.932;2023-06-22T04:22:17;31.95;;;26.90;;
53652;SDS011;39553;52.954;5.932;2023-06-22T04:24:43;29.75;;;25.42;;
53652;SDS011;39553;52.954;5.932;2023-06-22T04:27:09;30.80;;;26.05;;
53652;SDS011;39553;52.954;5.932;2023-06-22T04:29:35;33.38;;;25.52;;
53652;SDS011;39553;52.954;5.932;2023-06-22T04:32:03;31.08;;;25.35;;
53652;SDS011;39553;52.954;5.932;2023-06-22T04:34:30;33.95;;;25.83;;
53652;SDS011;39553;52.954;5.932;2023-06-22T04:36:56;32.15;;;24.67;;
53652;SDS011;39553;52.954;5.932;2023-06-22T04:39:23;31.63;;;25.77;;
53652;SDS011;39553;52.954;5.932;2023-06-22T04:41:49;31.90;;;25.58;;
53652;SDS011;39553;52.954;5.932;2023-06-22T04:44:17;32.75;;;27.00;;
53652;SDS011;39553;52.954;5.932;2023-06-22T04:46:54;38.45;;;30.02;;
53652;SDS011;39553;52.954;5.932;2023-06-22T04:49:25;31.00;;;27.52;;
53652;SDS011;39553;52.954;5.932;2023-06-22T04:51:58;32.33;;;26.15;;
53652;SDS011;39553;52.954;5.932;2023-06-22T04:54:24;35.20;;;26.83;;
53652;SDS011;39553;52.954;5.932;2023-06-22T04:56:50;32.42;;;27.15;;
53652;SDS011;39553;52.954;5.932;2023-06-22T04:59:27;31.23;;;25.58;;
53652;SDS011;39553;52.954;5.932;2023-06-22T05:01:58;29.07;;;24.37;;
53652;SDS011;39553;52.954;5.932;2023-06-22T05:04:26;32.15;;;25.23;;
53652;SDS011;39553;52.954;5.932;2023-06-22T05:07:00;26.77;;;22.92;;
53652;SDS011;39553;52.954;5.932;2023-06-22T05:09:27;26.40;;;23.05;;
53652;SDS011;39553;52.954;5.932;2023-06-22T05:11:54;27.45;;;22.17;;
53652;SDS011;39553;52.954;5.932;2023-06-22T05:14:21;30.23;;;22.27;;
53652;SDS011;39553;52.954;5.932;2023-06-22T05:16:48;26.25;;;21.25;;
53652;SDS011;39553;52.954;5.932;2023-06-22T05:19:14;24.23;;;21.48;;
53652;SDS011;39553;52.954;5.932;2023-06-22T05:21:40;27.00;;;21.00;;
53652;SDS011;39553;52.954;5.932;2023-06-22T05:24:06;28.85;;;22.35;;
53652;SDS011;39553;52.954;5.932;2023-06-22T05:26:32;28.25;;;22.55;;
53652;SDS011;39553;52.954;5.932;2023-06-22T05:28:59;27.58;;;22.52;;
53652;SDS011;39553;52.954;5.932;2023-06-22T05:31:26;29.42;;;23.00;;
53652;SDS011;39553;52.954;5.932;2023-06-22T05:33:52;24.85;;;22.20;;
53652;SDS011;39553;52.954;5.932;2023-06-22T05:36:19;29.10;;;22.20;;
53652;SDS011;39553;52.954;5.932;2023-06-22T05:38:46;31.83;;;24.08;;
53652;SDS011;39553;52.954;5.932;2023-06-22T05:41:12;25.10;;;22.40;;
53652;SDS011;39553;52.954;5.932;2023-06-22T05:43:39;27.02;;;22.88;;
53652;SDS011;39553;52.954;5.932;2023-06-22T05:46:05;30.25;;;22.95;;
53652;SDS011;39553;52.954;5.932;2023-06-22T05:48:31;30.08;;;23.33;;
53652;SDS011;39553;52.954;5.932;2023-06-22T05:50:57;29.98;;;24.23;;
53652;SDS011;39553;52.954;5.932;2023-06-22T05:53:23;28.63;;;23.05;;
53652;SDS011;39553;52.954;5.932;2023-06-22T05:55:49;29.20;;;24.25;;
53652;SDS011;39553;52.954;5.932;2023-06-22T05:58:14;28.92;;;22.70;;
53652;SDS011;39553;52.954;5.932;2023-06-22T06:00:41;31.40;;;24.02;;
53652;SDS011;39553;52.954;5.932;2023-06-22T06:03:07;28.73;;;24.05;;
53652;SDS011;39553;52.954;5.932;2023-06-22T06:05:34;28.92;;;24.80;;
53652;SDS011;39553;52.954;5.932;2023-06-22T06:08:01;31.33;;;24.90;;
53652;SDS011;39553;52.954;5.932;2023-06-22T06:10:29;30.30;;;24.75;;
53652;SDS011;39553;52.954;5.932;2023-06-22T06:12:56;27.20;;;23.88;;
53652;SDS011;39553;52.954;5.932;2023-06-22T06:15:22;29.02;;;23.65;;
53652;SDS011;39553;52.954;5.932;2023-06-22T06:17:48;26.83;;;23.13;;
53652;SDS011;39553;52.954;5.932;2023-06-22T06:20:15;31.17;;;25.38;;
53652;SDS011;39553;52.954;5.932;2023-06-22T06:22:46;28.17;;;22.75;;
53652;SDS011;39553;52.954;5.932;2023-06-22T06:25:12;31.48;;;24.58;;
53652;SDS011;39553;52.954;5.932;2023-06-22T06:27:44;30.65;;;23.70;;
53652;SDS011;39553;52.954;5.932;2023-06-22T06:30:14;28.02;;;24.05;;
53652;SDS011;39553;52.954;5.932;2023-06-22T06:32:42;28.50;;;23.20;;
53652;SDS011;39553;52.954;5.932;2023-06-22T06:35:10;29.83;;;24.20;;
53652;SDS011;39553;52.954;5.932;2023-06-22T06:37:42;27.85;;;23.17;;
53652;SDS011;39553;52.954;5.932;2023-06-22T06:40:10;27.65;;;22.98;;
53652;SDS011;39553;52.954;5.932;2023-06-22T06:42:37;26.48;;;23.08;;
53652;SDS011;39553;52.954;5.932;2023-06-22T06:45:07;28.80;;;23.15;;
53652;SDS011;39553;52.954;5.932;2023-06-22T06:47:33;25.65;;;22.13;;
53652;SDS011;39553;52.954;5.932;2023-06-22T06:49:59;25.33;;;22.25;;
53652;SDS011;39553;52.954;5.932;2023-06-22T06:52:25;25.55;;;20.95;;
53652;SDS011;39553;52.954;5.932;2023-06-22T06:54:51;24.08;;;21.40;;
53652;SDS011;39553;52.954;5.932;2023-06-22T06:57:17;27.45;;;20.98;;
53652;SDS011;39553;52.954;5.932;2023-06-22T06:59:43;23.23;;;20.75;;
53652;SDS011;39553;52.954;5.932;2023-06-22T07:02:09;24.60;;;19.55;;
53652;SDS011;39553;52.954;5.932;2023-06-22T07:04:35;21.48;;;17.92;;
53652;SDS011;39553;52.954;5.932;2023-06-22T07:07:01;25.10;;;19.38;;
53652;SDS011;39553;52.954;5.932;2023-06-22T07:09:28;21.85;;;19.13;;
53652;SDS011;39553;52.954;5.932;2023-06-22T07:11:54;22.35;;;17.75;;
53652;SDS011;39553;52.954;5.932;2023-06-22T07:14:19;24.27;;;18.98;;
53652;SDS011;39553;52.954;5.932;2023-06-22T07:16:45;19.13;;;16.80;;
53652;SDS011;39553;52.954;5.932;2023-06-22T07:19:11;19.15;;;17.05;;
53652;SDS011;39553;52.954;5.932;2023-06-22T07:21:40;21.48;;;16.98;;
53652;SDS011;39553;52.954;5.932;2023-06-22T07:24:06;20.25;;;16.58;;
53652;SDS011;39553;52.954;5.932;2023-06-22T07:26:32;21.55;;;16.48;;
53652;SDS011;39553;52.954;5.932;2023-06-22T07:28:58;21.83;;;16.80;;
53652;SDS011;39553;52.954;5.932;2023-06-22T07:31:24;19.05;;;16.58;;
53652;SDS011;39553;52.954;5.932;2023-06-22T07:33:51;18.45;;;14.80;;
53652;SDS011;39553;52.954;5.932;2023-06-22T07:36:17;17.92;;;15.82;;
53652;SDS011;39553;52.954;5.932;2023-06-22T07:38:43;16.05;;;13.77;;
53652;SDS011;39553;52.954;5.932;2023-06-22T07:41:09;17.80;;;14.65;;
53652;SDS011;39553;52.954;5.932;2023-06-22T07:43:35;14.80;;;13.35;;
53652;SDS011;39553;52.954;5.932;2023-06-22T07:46:04;19.15;;;14.80;;
53652;SDS011;39553;52.954;5.932;2023-06-22T07:48:31;15.02;;;13.52;;
53652;SDS011;39553;52.954;5.932;2023-06-22T07:50:57;19.08;;;15.20;;
53652;SDS011;39553;52.954;5.932;2023-06-22T07:53:22;20.58;;;14.88;;
53652;SDS011;39553;52.954;5.932;2023-06-22T07:55:49;18.80;;;15.95;;
53652;SDS011;39553;52.954;5.932;2023-06-22T07:58:15;23.38;;;16.00;;
53652;SDS011;39553;52.954;5.932;2023-06-22T08:00:41;19.02;;;15.90;;
53652;SDS011;39553;52.954;5.932;2023-06-22T08:03:07;16.77;;;14.70;;
53652;SDS011;39553;52.954;5.932;2023-06-22T08:05:32;18.15;;;16.08;;
53652;SDS011;39553;52.954;5.932;2023-06-22T08:07:58;21.30;;;16.25;;
53652;SDS011;39553;52.954;5.932;2023-06-22T08:10:24;20.85;;;16.73;;
53652;SDS011;39553;52.954;5.932;2023-06-22T08:12:49;19.67;;;15.20;;
53652;SDS011;39553;52.954;5.932;2023-06-22T08:15:17;17.42;;;15.38;;
53652;SDS011;39553;52.954;5.932;2023-06-22T08:17:43;17.25;;;15.32;;
53652;SDS011;39553;52.954;5.932;2023-06-22T08:20:10;19.13;;;14.70;;
53652;SDS011;39553;52.954;5.932;2023-06-22T08:22:39;19.98;;;15.32;;
53652;SDS011;39553;52.954;5.932;2023-06-22T08:25:06;17.30;;;14.50;;
53652;SDS011;39553;52.954;5.932;2023-06-22T08:27:32;15.38;;;13.15;;
53652;SDS011;39553;52.954;5.932;2023-06-22T08:29:58;16.35;;;13.15;;
53652;SDS011;39553;52.954;5.932;2023-06-22T08:32:28;17.90;;;12.48;;
53652;SDS011;39553;52.954;5.932;2023-06-22T08:34:54;15.13;;;13.27;;
53652;SDS011;39553;52.954;5.932;2023-06-22T08:37:21;15.43;;;13.02;;
53652;SDS011;39553;52.954;5.932;2023-06-22T08:39:50;20.88;;;14.38;;
53652;SDS011;39553;52.954;5.932;2023-06-22T08:42:15;17.73;;;14.50;;
53652;SDS011;39553;52.954;5.932;2023-06-22T08:44:41;17.65;;;14.30;;
53652;SDS011;39553;52.954;5.932;2023-06-22T08:47:07;16.17;;;13.38;;
53652;SDS011;39553;52.954;5.932;2023-06-22T08:49:33;16.25;;;13.23;;
53652;SDS011;39553;52.954;5.932;2023-06-22T08:51:58;17.30;;;13.05;;
53652;SDS011;39553;52.954;5.932;2023-06-22T08:54:24;21.75;;;13.10;;
53652;SDS011;39553;52.954;5.932;2023-06-22T08:56:50;18.52;;;13.30;;
53652;SDS011;39553;52.954;5.932;2023-06-22T08:59:15;17.48;;;13.93;;
53652;SDS011;39553;52.954;5.932;2023-06-22T09:01:41;16.25;;;12.98;;
53652;SDS011;39553;52.954;5.932;2023-06-22T09:04:10;14.95;;;12.88;;
53652;SDS011;39553;52.954;5.932;2023-06-22T09:06:37;17.67;;;13.65;;
53652;SDS011;39553;52.954;5.932;2023-06-22T09:09:09;16.23;;;11.75;;
53652;SDS011;39553;52.954;5.932;2023-06-22T09:11:36;14.35;;;11.27;;
53652;SDS011;39553;52.954;5.932;2023-06-22T09:14:01;13.85;;;11.55;;
53652;SDS011;39553;52.954;5.932;2023-06-22T09:16:28;16.42;;;12.27;;
53652;SDS011;39553;52.954;5.932;2023-06-22T09:18:54;14.68;;;11.32;;
53652;SDS011;39553;52.954;5.932;2023-06-22T09:21:20;13.82;;;10.98;;
53652;SDS011;39553;52.954;5.932;2023-06-22T09:23:46;16.63;;;11.60;;
53652;SDS011;39553;52.954;5.932;2023-06-22T09:26:15;14.60;;;11.43;;
53652;SDS011;39553;52.954;5.932;2023-06-22T09:28:41;13.35;;;11.93;;
53652;SDS011;39553;52.954;5.932;2023-06-22T09:31:07;15.40;;;11.70;;
53652;SDS011;39553;52.954;5.932;2023-06-22T09:33:32;11.93;;;10.25;;
53652;SDS011;39553;52.954;5.932;2023-06-22T09:35:58;13.27;;;10.80;;
53652;SDS011;39553;52.954;5.932;2023-06-22T09:38:24;14.05;;;9.77;;
53652;SDS011;39553;52.954;5.932;2023-06-22T09:40:50;12.05;;;10.20;;
53652;SDS011;39553;52.954;5.932;2023-06-22T09:43:16;12.77;;;10.40;;
53652;SDS011;39553;52.954;5.932;2023-06-22T09:45:42;14.23;;;10.48;;
53652;SDS011;39553;52.954;5.932;2023-06-22T09:48:08;15.07;;;9.18;;
53652;SDS011;39553;52.954;5.932;2023-06-22T09:50:35;12.25;;;9.15;;
53652;SDS011;39553;52.954;5.932;2023-06-22T09:53:01;11.32;;;8.00;;
53652;SDS011;39553;52.954;5.932;2023-06-22T09:55:27;10.55;;;8.07;;
53652;SDS011;39553;52.954;5.932;2023-06-22T09:57:53;11.52;;;7.60;;
53652;SDS011;39553;52.954;5.932;2023-06-22T10:00:20;10.60;;;7.65;;
53652;SDS011;39553;52.954;5.932;2023-06-22T10:02:47;8.65;;;7.60;;
53652;SDS011;39553;52.954;5.932;2023-06-22T10:05:13;8.52;;;6.75;;
53652;SDS011;39553;52.954;5.932;2023-06-22T10:07:39;9.93;;;8.93;;
53652;SDS011;39553;52.954;5.932;2023-06-22T10:10:08;9.02;;;7.28;;
53652;SDS011;39553;52.954;5.932;2023-06-22T10:12:34;7.65;;;5.88;;
53652;SDS011;39553;52.954;5.932;2023-06-22T10:15:00;8.20;;;6.55;;
53652;SDS011;39553;52.954;5.932;2023-06-22T10:17:25;9.90;;;7.05;;
53652;SDS011;39553;52.954;5.932;2023-06-22T10:19:51;8.63;;;6.90;;
53652;SDS011;39553;52.954;5.932;2023-06-22T10:22:17;9.77;;;7.55;;
53652;SDS011;39553;52.954;5.932;2023-06-22T10:24:43;11.60;;;5.68;;
53652;SDS011;39553;52.954;5.932;2023-06-22T10:27:12;8.52;;;6.95;;
53652;SDS011;39553;52.954;5.932;2023-06-22T10:29:39;7.20;;;5.90;;
53652;SDS011;39553;52.954;5.932;2023-06-22T10:32:05;6.07;;;5.47;;
53652;SDS011;39553;52.954;5.932;2023-06-22T10:34:31;6.88;;;6.00;;
53652;SDS011;39553;52.954;5.932;2023-06-22T10:36:57;7.45;;;6.40;;
53652;SDS011;39553;52.954;5.932;2023-06-22T10:39:22;8.80;;;6.47;;
53652;SDS011;39553;52.954;5.932;2023-06-22T10:41:48;7.57;;;6.07;;
53652;SDS011;39553;52.954;5.932;2023-06-22T10:44:14;7.47;;;5.60;;
53652;SDS011;39553;52.954;5.932;2023-06-22T10:46:40;8.23;;;4.57;;
53652;SDS011;39553;52.954;5.932;2023-06-22T10:49:05;5.82;;;4.38;;
53652;SDS011;39553;52.954;5.932;2023-06-22T10:51:31;6.00;;;4.70;;
53652;SDS011;39553;52.954;5.932;2023-06-22T10:53:57;5.68;;;4.68;;
53652;SDS011;39553;52.954;5.932;2023-06-22T10:56:23;5.57;;;4.90;;
53652;SDS011;39553;52.954;5.932;2023-06-22T10:58:49;5.07;;;3.97;;
53652;SDS011;39553;52.954;5.932;2023-06-22T11:01:15;8.88;;;4.47;;
53652;SDS011;39553;52.954;5.932;2023-06-22T11:03:40;6.88;;;5.03;;
53652;SDS011;39553;52.954;5.932;2023-06-22T11:06:06;8.02;;;5.05;;
53652;SDS011;39553;52.954;5.932;2023-06-22T11:08:32;7.78;;;5.88;;
53652;SDS011;39553;52.954;5.932;2023-06-22T11:10:57;7.55;;;5.03;;
53652;SDS011;39553;52.954;5.932;2023-06-22T11:13:23;7.05;;;4.95;;
53652;SDS011;39553;52.954;5.932;2023-06-22T11:15:50;4.90;;;4.00;;
53652;SDS011;39553;52.954;5.932;2023-06-22T11:18:15;6.18;;;4.07;;
53652;SDS011;39553;52.954;5.932;2023-06-22T11:20:41;6.53;;;3.58;;
53652;SDS011;39553;52.954;5.932;2023-06-22T11:23:07;5.72;;;3.38;;
53652;SDS011;39553;52.954;5.932;2023-06-22T11:25:33;6.50;;;4.20;;
53652;SDS011;39553;52.954;5.932;2023-06-22T11:28:03;7.70;;;5.05;;
53652;SDS011;39553;52.954;5.932;2023-06-22T11:30:29;5.22;;;4.15;;
53652;SDS011;39553;52.954;5.932;2023-06-22T11:32:58;5.88;;;3.95;;
53652;SDS011;39553;52.954;5.932;2023-06-22T11:35:24;6.57;;;4.80;;
53652;SDS011;39553;52.954;5.932;2023-06-22T11:37:50;9.73;;;5.20;;
53652;SDS011;39553;52.954;5.932;2023-06-22T11:40:16;6.40;;;5.22;;
53652;SDS011;39553;52.954;5.932;2023-06-22T11:42:42;5.32;;;4.25;;
53652;SDS011;39553;52.954;5.932;2023-06-22T11:45:08;8.25;;;4.20;;
53652;SDS011;39553;52.954;5.932;2023-06-22T11:47:35;6.47;;;4.57;;
53652;SDS011;39553;52.954;5.932;2023-06-22T11:50:01;6.40;;;4.35;;
53652;SDS011;39553;52.954;5.932;2023-06-22T11:52:28;6.05;;;4.50;;
53652;SDS011;39553;52.954;5.932;2023-06-22T11:54:53;7.05;;;4.03;;
53652;SDS011;39553;52.954;5.932;2023-06-22T11:57:19;8.05;;;3.90;;
53652;SDS011;39553;52.954;5.932;2023-06-22T11:59:45;5.47;;;4.38;;
53652;SDS011;39553;52.954;5.932;2023-06-22T12:02:10;7.90;;;4.03;;
53652;SDS011;39553;52.954;5.932;2023-06-22T12:04:36;6.55;;;4.18;;
53652;SDS011;39553;52.954;5.932;2023-06-22T12:07:03;7.15;;;5.05;;
53652;SDS011;39553;52.954;5.932;2023-06-22T12:09:28;6.03;;;4.43;;
53652;SDS011;39553;52.954;5.932;2023-06-22T12:11:55;6.05;;;4.88;;
53652;SDS011;39553;52.954;5.932;2023-06-22T12:14:20;6.20;;;4.22;;
53652;SDS011;39553;52.954;5.932;2023-06-22T12:16:46;7.03;;;5.35;;
53652;SDS011;39553;52.954;5.932;2023-06-22T12:19:12;6.47;;;4.45;;
53652;SDS011;39553;52.954;5.932;2023-06-22T12:21:37;7.93;;;4.03;;
53652;SDS011;39553;52.954;5.932;2023-06-22T12:24:05;7.55;;;4.25;;
53652;SDS011;39553;52.954;5.932;2023-06-22T12:26:31;9.77;;;4.28;;
53652;SDS011;39553;52.954;5.932;2023-06-22T12:28:57;6.85;;;4.72;;
53652;SDS011;39553;52.954;5.932;2023-06-22T12:31:22;7.78;;;4.68;;
53652;SDS011;39553;52.954;5.932;2023-06-22T12:33:48;7.35;;;4.30;;
53652;SDS011;39553;52.954;5.932;2023-06-22T12:36:14;9.25;;;5.05;;
53652;SDS011;39553;52.954;5.932;2023-06-22T12:38:41;8.30;;;5.05;;
53652;SDS011;39553;52.954;5.932;2023-06-22T12:41:07;8.77;;;5.10;;
53652;SDS011;39553;52.954;5.932;2023-06-22T12:43:33;7.78;;;5.72;;
53652;SDS011;39553;52.954;5.932;2023-06-22T12:45:58;13.68;;;5.35;;
53652;SDS011;39553;52.954;5.932;2023-06-22T12:48:25;7.88;;;5.43;;
53652;SDS011;39553;52.954;5.932;2023-06-22T12:50:52;6.65;;;5.38;;
53652;SDS011;39553;52.954;5.932;2023-06-22T12:53:18;7.30;;;6.00;;
53652;SDS011;39553;52.954;5.932;2023-06-22T12:55:44;7.25;;;5.95;;
53652;SDS011;39553;52.954;5.932;2023-06-22T12:58:09;9.40;;;6.30;;
53652;SDS011;39553;52.954;5.932;2023-06-22T13:00:35;7.43;;;6.43;;
53652;SDS011;39553;52.954;5.932;2023-06-22T13:03:01;8.40;;;5.70;;
53652;SDS011;39553;52.954;5.932;2023-06-22T13:05:27;7.93;;;5.53;;
53652;SDS011;39553;52.954;5.932;2023-06-22T13:07:52;7.63;;;6.40;;
53652;SDS011;39553;52.954;5.932;2023-06-22T13:10:18;9.40;;;5.63;;
53652;SDS011;39553;52.954;5.932;2023-06-22T13:12:44;10.43;;;6.82;;
53652;SDS011;39553;52.954;5.932;2023-06-22T13:15:10;9.77;;;6.50;;
53652;SDS011;39553;52.954;5.932;2023-06-22T13:17:35;8.60;;;7.55;;
53652;SDS011;39553;52.954;5.932;2023-06-22T13:20:01;8.68;;;7.10;;
53652;SDS011;39553;52.954;5.932;2023-06-22T13:22:30;10.45;;;6.07;;
53652;SDS011;39553;52.954;5.932;2023-06-22T13:24:58;10.93;;;6.55;;
53652;SDS011;39553;52.954;5.932;2023-06-22T13:27:24;12.80;;;6.57;;
53652;SDS011;39553;52.954;5.932;2023-06-22T13:29:50;10.60;;;7.35;;
53652;SDS011;39553;52.954;5.932;2023-06-22T13:32:16;11.10;;;7.85;;
53652;SDS011;39553;52.954;5.932;2023-06-22T13:34:43;11.10;;;7.75;;
53652;SDS011;39553;52.954;5.932;2023-06-22T13:37:09;14.70;;;8.73;;
53652;SDS011;39553;52.954;5.932;2023-06-22T13:39:34;10.38;;;8.40;;
53652;SDS011;39553;52.954;5.932;2023-06-22T13:42:00;11.82;;;8.38;;
53652;SDS011;39553;52.954;5.932;2023-06-22T13:44:26;11.75;;;9.55;;
53652;SDS011;39553;52.954;5.932;2023-06-22T13:46:54;13.02;;;8.75;;
53652;SDS011;39553;52.954;5.932;2023-06-22T13:49:20;13.63;;;8.07;;
53652;SDS011;39553;52.954;5.932;2023-06-22T13:51:47;10.18;;;7.82;;
53652;SDS011;39553;52.954;5.932;2023-06-22T13:54:13;10.15;;;7.90;;
53652;SDS011;39553;52.954;5.932;2023-06-22T13:56:39;14.23;;;8.68;;
53652;SDS011;39553;52.954;5.932;2023-06-22T13:59:05;16.45;;;8.02;;
53652;SDS011;39553;52.954;5.932;2023-06-22T14:01:34;9.00;;;7.97;;
53652;SDS011;39553;52.954;5.932;2023-06-22T14:04:05;12.35;;;9.05;;
53652;SDS011;39553;52.954;5.932;2023-06-22T14:06:30;11.48;;;7.90;;
53652;SDS011;39553;52.954;5.932;2023-06-22T14:08:57;11.57;;;8.60;;
53652;SDS011;39553;52.954;5.932;2023-06-22T14:11:24;12.73;;;8.80;;
53652;SDS011;39553;52.954;5.932;2023-06-22T14:13:50;11.13;;;8.07;;
53652;SDS011;39553;52.954;5.932;2023-06-22T14:16:16;11.18;;;7.97;;
53652;SDS011;39553;52.954;5.932;2023-06-22T14:18:42;9.48;;;6.55;;
53652;SDS011;39553;52.954;5.932;2023-06-22T14:21:08;12.73;;;7.18;;
53652;SDS011;39553;52.954;5.932;2023-06-22T14:23:34;10.75;;;6.15;;
53652;SDS011;39553;52.954;5.932;2023-06-22T14:25:59;11.50;;;5.43;;
53652;SDS011;39553;52.954;5.932;2023-06-22T14:28:25;8.40;;;5.85;;
53652;SDS011;39553;52.954;5.932;2023-06-22T14:30:51;11.63;;;4.82;;